Time,TemperatureF,DewpointF,PressureIn,WindDirection,WindDirectionDegrees,WindSpeedMPH,WindSpeedGustMPH,Humidity,HourlyPrecipIn,Conditions,Clouds,dailyrainin,SoftwareType,DateUTC
2013-07-22 00:04:00,73.0,69.6,29.98,SW,225,4.0,13.0,89,0.00,,,0.00,Weather View 32 v70,2013-07-22 04:04:00,
2013-07-22 00:09:00,72.0,68.6,29.97,West,270,3.0,13.0,89,0.02,,,0.02,Weather View 32 v70,2013-07-22 04:09:00,
2013-07-22 00:14:00,72.0,67.9,29.97,SW,225,5.0,13.0,87,0.03,,,0.03,Weather View 32 v70,2013-07-22 04:14:00,
2013-07-22 00:19:00,71.0,66.6,29.97,SSW,202,1.0,13.0,86,0.04,,,0.04,Weather View 32 v70,2013-07-22 04:19:00,
2013-07-22 00:29:00,70.0,65.3,29.97,SW,225,1.0,13.0,85,0.07,,,0.07,Weather View 32 v70,2013-07-22 04:29:00,
2013-07-22 00:34:00,70.0,64.6,29.97,South,180,6.0,13.0,83,0.08,,,0.08,Weather View 32 v70,2013-07-22 04:34:00,
2013-07-22 00:39:00,70.0,64.6,29.97,South,180,3.0,12.0,83,0.09,,,0.09,Weather View 32 v70,2013-07-22 04:39:00,
2013-07-22 00:49:00,69.0,62.6,29.96,SE,135,2.0,10.0,80,0.12,,,0.12,Weather View 32 v70,2013-07-22 04:49:00,
2013-07-22 00:54:00,69.0,62.6,29.96,SSE,157,3.0,10.0,80,0.14,,,0.14,Weather View 32 v70,2013-07-22 04:54:00,
2013-07-22 00:59:00,70.0,62.8,29.96,SSE,157,0.0,10.0,78,0.17,,,0.17,Weather View 32 v70,2013-07-22 04:59:00,
2013-07-22 01:04:00,70.0,62.8,29.95,SE,135,5.0,10.0,78,0.19,,,0.19,Weather View 32 v70,2013-07-22 05:04:00,
2013-07-22 01:09:00,69.0,61.5,29.94,SE,135,1.0,10.0,77,0.19,,,0.21,Weather View 32 v70,2013-07-22 05:09:00,
2013-07-22 01:19:00,69.0,61.5,29.93,SE,135,5.0,9.0,77,0.19,,,0.23,Weather View 32 v70,2013-07-22 05:19:00,
2013-07-22 01:24:00,69.0,61.5,29.93,SE,135,0.0,9.0,77,0.19,,,0.24,Weather View 32 v70,2013-07-22 05:24:00,
2013-07-22 01:29:00,69.0,61.5,29.93,SE,135,1.0,9.0,77,0.18,,,0.25,Weather View 32 v70,2013-07-22 05:29:00,
2013-07-22 01:34:00,69.0,61.5,29.93,SSE,157,0.0,9.0,77,0.17,,,0.25,Weather View 32 v70,2013-07-22 05:34:00,
2013-07-22 01:44:00,69.0,61.5,29.93,SE,135,0.0,6.0,77,0.16,,,0.26,Weather View 32 v70,2013-07-22 05:44:00,
2013-07-22 01:49:00,69.0,61.5,29.92,SE,135,0.0,6.0,77,0.15,,,0.27,Weather View 32 v70,2013-07-22 05:49:00,
2013-07-22 01:54:00,69.0,61.5,29.92,ENE,67,2.0,6.0,77,0.13,,,0.27,Weather View 32 v70,2013-07-22 05:54:00,
2013-07-22 02:04:00,69.0,61.5,29.91,ENE,67,0.0,6.0,77,0.08,,,0.27,Weather View 32 v70,2013-07-22 06:04:00,
2013-07-22 02:09:00,69.0,61.8,29.91,ENE,67,0.0,6.0,78,0.06,,,0.27,Weather View 32 v70,2013-07-22 06:09:00,
2013-07-22 02:14:00,69.0,61.5,29.91,North,360,0.0,6.0,77,0.05,,,0.28,Weather View 32 v70,2013-07-22 06:14:00,
2013-07-22 02:19:00,69.0,61.8,29.91,North,360,0.0,6.0,78,0.05,,,0.28,Weather View 32 v70,2013-07-22 06:19:00,
2013-07-22 02:29:00,69.0,60.7,29.90,SE,135,1.0,5.0,75,0.03,,,0.28,Weather View 32 v70,2013-07-22 06:29:00,
2013-07-22 02:34:00,69.0,60.7,29.89,SE,135,1.0,5.0,75,0.03,,,0.28,Weather View 32 v70,2013-07-22 06:34:00,
2013-07-22 02:44:00,69.0,61.1,29.88,ESE,112,4.0,5.0,76,0.02,,,0.28,Weather View 32 v70,2013-07-22 06:44:00,
2013-07-22 02:49:00,69.0,61.1,29.87,East,90,2.0,7.0,76,0.01,,,0.28,Weather View 32 v70,2013-07-22 06:49:00,
2013-07-22 02:54:00,69.0,61.1,29.87,SSE,157,2.0,7.0,76,0.01,,,0.28,Weather View 32 v70,2013-07-22 06:54:00,
2013-07-22 03:04:00,69.0,61.1,29.87,SE,135,2.0,7.0,76,0.01,,,0.28,Weather View 32 v70,2013-07-22 07:04:00,
2013-07-22 03:09:00,69.0,61.1,29.87,SE,135,1.0,7.0,76,0.01,,,0.28,Weather View 32 v70,2013-07-22 07:09:00,
2013-07-22 03:14:00,69.0,61.5,29.87,SE,135,3.0,7.0,77,0.00,,,0.28,Weather View 32 v70,2013-07-22 07:14:00,
2013-07-22 03:22:00,69.0,61.1,29.87,SE,135,0.0,7.0,76,0.00,,,0.28,Weather View 32 v70,2013-07-22 07:22:00,
2013-07-22 03:30:00,69.0,61.5,29.87,SE,135,0.0,7.0,77,0.00,,,0.28,Weather View 32 v70,2013-07-22 07:30:00,
2013-07-22 03:39:00,69.0,61.1,29.88,SSE,157,3.0,7.0,76,0.00,,,0.28,Weather View 32 v70,2013-07-22 07:39:00,
2013-07-22 03:44:00,69.0,61.8,29.88,SE,135,0.0,7.0,78,0.00,,,0.28,Weather View 32 v70,2013-07-22 07:44:00,
2013-07-22 03:49:00,69.0,61.5,29.87,SE,135,0.0,6.0,77,0.00,,,0.28,Weather View 32 v70,2013-07-22 07:49:00,
2013-07-22 03:59:00,69.0,61.5,29.88,SSE,157,0.0,6.0,77,0.00,,,0.28,Weather View 32 v70,2013-07-22 07:59:00,
2013-07-22 04:04:00,69.0,61.8,29.88,South,180,3.0,6.0,78,0.00,,,0.28,Weather View 32 v70,2013-07-22 08:04:00,
2013-07-22 04:09:00,69.0,61.5,29.88,SE,135,6.0,7.0,77,0.00,,,0.28,Weather View 32 v70,2013-07-22 08:09:00,
2013-07-22 04:14:00,69.0,61.5,29.87,South,180,1.0,7.0,77,0.00,,,0.28,Weather View 32 v70,2013-07-22 08:14:00,
2013-07-22 04:23:00,69.0,61.5,29.87,SSE,157,4.0,7.0,77,0.00,,,0.28,Weather View 32 v70,2013-07-22 08:23:00,
2013-07-22 04:29:00,69.0,61.5,29.88,SSE,157,0.0,7.0,77,0.00,,,0.28,Weather View 32 v70,2013-07-22 08:29:00,
2013-07-22 04:34:00,69.0,61.5,29.87,SSE,157,0.0,7.0,77,0.00,,,0.28,Weather View 32 v70,2013-07-22 08:34:00,
2013-07-22 04:39:00,69.0,61.8,29.87,SSE,157,3.0,7.0,78,0.00,,,0.28,Weather View 32 v70,2013-07-22 08:39:00,
2013-07-22 04:44:00,69.0,61.5,29.87,SSE,157,0.0,7.0,77,0.00,,,0.28,Weather View 32 v70,2013-07-22 08:44:00,
2013-07-22 04:49:00,69.0,61.1,29.87,SSE,157,0.0,7.0,76,0.00,,,0.28,Weather View 32 v70,2013-07-22 08:49:00,
2013-07-22 04:59:00,69.0,61.8,29.87,South,180,0.0,7.0,78,0.00,,,0.28,Weather View 32 v70,2013-07-22 08:59:00,
2013-07-22 05:04:00,69.0,61.5,29.87,South,180,0.0,7.0,77,0.00,,,0.28,Weather View 32 v70,2013-07-22 09:04:00,
2013-07-22 05:09:00,69.0,61.5,29.87,SSE,157,2.0,7.0,77,0.00,,,0.28,Weather View 32 v70,2013-07-22 09:09:00,
2013-07-22 05:19:00,69.0,61.1,29.87,SE,135,2.0,6.0,76,0.00,,,0.28,Weather View 32 v70,2013-07-22 09:19:00,
2013-07-22 05:24:00,69.0,61.1,29.87,SSW,202,0.0,6.0,76,0.00,,,0.28,Weather View 32 v70,2013-07-22 09:24:00,
2013-07-22 05:29:00,69.0,61.1,29.87,SSW,202,0.0,6.0,76,0.00,,,0.28,Weather View 32 v70,2013-07-22 09:29:00,
2013-07-22 05:34:00,69.0,61.5,29.87,SSW,202,0.0,6.0,77,0.00,,,0.28,Weather View 32 v70,2013-07-22 09:34:00,
2013-07-22 05:39:00,69.0,61.5,29.88,SSE,157,4.0,6.0,77,0.00,,,0.28,Weather View 32 v70,2013-07-22 09:39:00,
2013-07-22 05:44:00,69.0,61.1,29.88,SSE,157,0.0,6.0,76,0.00,,,0.28,Weather View 32 v70,2013-07-22 09:44:00,
2013-07-22 05:49:00,69.0,61.5,29.87,SSE,157,0.0,6.0,77,0.00,,,0.28,Weather View 32 v70,2013-07-22 09:49:00,
2013-07-22 05:59:00,70.0,62.1,29.87,South,180,1.0,6.0,76,0.00,,,0.28,Weather View 32 v70,2013-07-22 09:59:00,
2013-07-22 06:04:00,70.0,61.7,29.87,South,180,1.0,6.0,75,0.00,,,0.28,Weather View 32 v70,2013-07-22 10:04:00,
2013-07-22 06:14:00,70.0,61.7,29.88,South,180,2.0,6.0,75,0.00,,,0.28,Weather View 32 v70,2013-07-22 10:14:00,
2013-07-22 06:19:00,70.0,60.9,29.88,South,180,1.0,6.0,73,0.00,,,0.28,Weather View 32 v70,2013-07-22 10:19:00,
2013-07-22 06:24:00,70.0,60.9,29.88,South,180,3.0,6.0,73,0.00,,,0.28,Weather View 32 v70,2013-07-22 10:24:00,
2013-07-22 06:29:00,70.0,60.5,29.88,SSE,157,1.0,6.0,72,0.00,,,0.28,Weather View 32 v70,2013-07-22 10:29:00,
2013-07-22 06:34:00,70.0,60.9,29.88,SSE,157,0.0,6.0,73,0.00,,,0.28,Weather View 32 v70,2013-07-22 10:34:00,
2013-07-22 06:44:00,70.0,61.3,29.88,SSE,157,1.0,6.0,74,0.00,,,0.28,Weather View 32 v70,2013-07-22 10:44:00,
2013-07-22 06:49:00,70.0,61.3,29.88,SSE,157,0.0,6.0,74,0.00,,,0.28,Weather View 32 v70,2013-07-22 10:49:00,
2013-07-22 06:54:00,70.0,61.7,29.88,SSE,157,1.0,6.0,75,0.00,,,0.28,Weather View 32 v70,2013-07-22 10:54:00,
2013-07-22 06:59:00,70.0,61.7,29.88,SSE,157,2.0,6.0,75,0.00,,,0.28,Weather View 32 v70,2013-07-22 10:59:00,
2013-07-22 07:04:00,70.0,61.3,29.88,SSE,157,2.0,6.0,74,0.00,,,0.28,Weather View 32 v70,2013-07-22 11:04:00,
2013-07-22 07:14:00,70.0,60.5,29.87,SSE,157,1.0,6.0,72,0.00,,,0.28,Weather View 32 v70,2013-07-22 11:14:00,
2013-07-22 07:19:00,70.0,60.9,29.87,SE,135,2.0,6.0,73,0.00,,,0.28,Weather View 32 v70,2013-07-22 11:19:00,
2013-07-22 07:25:00,70.0,60.5,29.88,South,180,2.0,5.0,72,0.00,,,0.28,Weather View 32 v70,2013-07-22 11:25:00,
2013-07-22 07:34:00,70.0,60.9,29.87,SE,135,0.0,5.0,73,0.00,,,0.28,Weather View 32 v70,2013-07-22 11:34:00,
2013-07-22 07:39:00,70.0,60.9,29.87,SSE,157,5.0,5.0,73,0.00,,,0.28,Weather View 32 v70,2013-07-22 11:39:00,
2013-07-22 07:44:00,70.0,60.9,29.87,SSE,157,0.0,5.0,73,0.00,,,0.28,Weather View 32 v70,2013-07-22 11:44:00,
2013-07-22 07:54:00,70.0,61.7,29.87,SSE,157,0.0,5.0,75,0.00,,,0.28,Weather View 32 v70,2013-07-22 11:54:00,
2013-07-22 07:59:00,70.0,61.3,29.87,South,180,1.0,6.0,74,0.00,,,0.28,Weather View 32 v70,2013-07-22 11:59:00,
2013-07-22 08:04:00,70.0,61.7,29.87,South,180,0.0,6.0,75,0.00,,,0.28,Weather View 32 v70,2013-07-22 12:04:00,
2013-07-22 08:14:00,70.0,61.7,29.87,SW,225,0.0,6.0,75,0.00,,,0.28,Weather View 32 v70,2013-07-22 12:14:00,
2013-07-22 08:19:00,70.0,61.7,29.87,South,180,3.0,6.0,75,0.01,,,0.29,Weather View 32 v70,2013-07-22 12:19:00,
2013-07-22 08:24:00,70.0,61.7,29.87,South,180,0.0,6.0,75,0.01,,,0.29,Weather View 32 v70,2013-07-22 12:24:00,
2013-07-22 08:29:00,70.0,61.7,29.87,SE,135,0.0,6.0,75,0.02,,,0.30,Weather View 32 v70,2013-07-22 12:29:00,
2013-07-22 08:34:00,70.0,61.3,29.87,South,180,6.0,6.0,74,0.02,,,0.30,Weather View 32 v70,2013-07-22 12:34:00,
2013-07-22 08:44:00,70.0,60.5,29.86,SE,135,2.0,6.0,72,0.03,,,0.31,Weather View 32 v70,2013-07-22 12:44:00,
2013-07-22 08:49:00,70.0,60.9,29.86,South,180,3.0,6.0,73,0.03,,,0.31,Weather View 32 v70,2013-07-22 12:49:00,
2013-07-22 08:54:00,70.0,60.9,29.86,South,180,2.0,6.0,73,0.03,,,0.31,Weather View 32 v70,2013-07-22 12:54:00,
2013-07-22 09:04:00,70.0,60.9,29.86,SSE,157,2.0,6.0,73,0.03,,,0.31,Weather View 32 v70,2013-07-22 13:04:00,
2013-07-22 09:09:00,70.0,60.9,29.86,SSE,157,0.0,6.0,73,0.03,,,0.31,Weather View 32 v70,2013-07-22 13:09:00,
2013-07-22 09:14:00,71.0,62.3,29.87,SSE,157,0.0,6.0,74,0.03,,,0.31,Weather View 32 v70,2013-07-22 13:14:00,
2013-07-22 09:19:00,71.0,61.9,29.87,SSE,157,0.0,6.0,73,0.02,,,0.31,Weather View 32 v70,2013-07-22 13:19:00,
2013-07-22 09:24:00,71.0,61.9,29.87,SSE,157,0.0,6.0,73,0.02,,,0.31,Weather View 32 v70,2013-07-22 13:24:00,
2013-07-22 09:29:00,71.0,61.5,29.87,SSE,157,1.0,6.0,72,0.01,,,0.31,Weather View 32 v70,2013-07-22 13:29:00,
2013-07-22 09:39:00,71.0,61.9,29.88,SSE,157,0.0,6.0,73,0.00,,,0.31,Weather View 32 v70,2013-07-22 13:39:00,
2013-07-22 09:44:00,71.0,61.9,29.88,SSE,157,0.0,6.0,73,0.00,,,0.31,Weather View 32 v70,2013-07-22 13:44:00,
2013-07-22 09:49:00,71.0,62.6,29.88,SSE,157,0.0,5.0,75,0.00,,,0.31,Weather View 32 v70,2013-07-22 13:49:00,
2013-07-22 09:54:00,71.0,62.6,29.88,SSE,157,4.0,5.0,75,0.00,,,0.31,Weather View 32 v70,2013-07-22 13:54:00,
2013-07-22 09:59:00,71.0,63.0,29.88,SSW,202,2.0,5.0,76,0.00,,,0.31,Weather View 32 v70,2013-07-22 13:59:00,
2013-07-22 10:09:00,71.0,61.5,29.89,WSW,247,2.0,5.0,72,0.00,,,0.31,Weather View 32 v70,2013-07-22 14:09:00,
2013-07-22 10:14:00,71.0,61.1,29.88,WSW,247,0.0,5.0,71,0.00,,,0.31,Weather View 32 v70,2013-07-22 14:14:00,
2013-07-22 10:19:00,71.0,61.1,29.88,West,270,1.0,5.0,71,0.00,,,0.31,Weather View 32 v70,2013-07-22 14:19:00,
2013-07-22 10:26:00,71.0,61.5,29.88,West,270,0.0,5.0,72,0.00,,,0.31,Weather View 32 v70,2013-07-22 14:26:00,
2013-07-22 10:34:00,71.0,61.5,29.88,SSW,202,0.0,5.0,72,0.00,,,0.31,Weather View 32 v70,2013-07-22 14:34:00,
2013-07-22 10:39:00,71.0,61.5,29.88,SSW,202,0.0,5.0,72,0.00,,,0.31,Weather View 32 v70,2013-07-22 14:39:00,
2013-07-22 10:44:00,71.0,61.1,29.88,SSW,202,1.0,5.0,71,0.00,,,0.31,Weather View 32 v70,2013-07-22 14:44:00,
2013-07-22 10:49:00,71.0,61.1,29.88,WSW,247,0.0,5.0,71,0.00,,,0.31,Weather View 32 v70,2013-07-22 14:49:00,
2013-07-22 10:59:00,71.0,61.1,29.88,WSW,247,0.0,5.0,71,0.00,,,0.31,Weather View 32 v70,2013-07-22 14:59:00,
2013-07-22 11:04:00,71.0,61.1,29.88,WSW,247,0.0,5.0,71,0.00,,,0.31,Weather View 32 v70,2013-07-22 15:04:00,
2013-07-22 11:09:00,71.0,60.7,29.88,WSW,247,2.0,5.0,70,0.00,,,0.31,Weather View 32 v70,2013-07-22 15:09:00,
2013-07-22 11:14:00,71.0,60.7,29.88,South,180,3.0,6.0,70,0.00,,,0.31,Weather View 32 v70,2013-07-22 15:14:00,
2013-07-22 11:19:00,71.0,60.7,29.88,South,180,0.0,6.0,70,0.00,,,0.31,Weather View 32 v70,2013-07-22 15:19:00,
2013-07-22 11:24:00,71.0,61.1,29.88,SW,225,1.0,6.0,71,0.00,,,0.31,Weather View 32 v70,2013-07-22 15:24:00,
2013-07-22 11:29:00,71.0,61.1,29.89,WSW,247,1.0,6.0,71,0.00,,,0.31,Weather View 32 v70,2013-07-22 15:29:00,
2013-07-22 11:39:00,72.0,62.0,29.88,South,180,0.0,6.0,71,0.00,,,0.31,Weather View 32 v70,2013-07-22 15:39:00,
2013-07-22 11:44:00,72.0,62.0,29.89,South,180,0.0,6.0,71,0.00,,,0.31,Weather View 32 v70,2013-07-22 15:44:00,
2013-07-22 11:54:00,73.0,63.0,29.89,South,180,4.0,6.0,71,0.00,,,0.31,Weather View 32 v70,2013-07-22 15:54:00,
2013-07-22 11:59:00,73.0,63.0,29.88,South,180,0.0,6.0,71,0.00,,,0.31,Weather View 32 v70,2013-07-22 15:59:00,
2013-07-22 12:04:00,74.0,64.8,29.89,West,270,1.0,6.0,73,0.00,,,0.31,Weather View 32 v70,2013-07-22 16:04:00,
2013-07-22 12:14:00,74.0,64.8,29.89,South,180,1.0,6.0,73,0.00,,,0.31,Weather View 32 v70,2013-07-22 16:14:00,
2013-07-22 12:19:00,74.0,65.2,29.89,SSE,157,1.0,6.0,74,0.00,,,0.31,Weather View 32 v70,2013-07-22 16:19:00,
2013-07-22 12:27:00,75.0,66.5,29.89,SW,225,1.0,6.0,75,0.00,,,0.31,Weather View 32 v70,2013-07-22 16:27:00,
2013-07-22 12:34:00,76.0,66.7,29.89,West,270,5.0,6.0,73,0.00,,,0.31,Weather View 32 v70,2013-07-22 16:34:00,
2013-07-22 12:39:00,75.0,65.3,29.89,SW,225,4.0,6.0,72,0.00,,,0.31,Weather View 32 v70,2013-07-22 16:39:00,
2013-07-22 12:44:00,76.0,65.9,29.89,West,270,3.0,6.0,71,0.00,,,0.31,Weather View 32 v70,2013-07-22 16:44:00,
2013-07-22 12:49:00,76.0,63.8,29.89,South,180,0.0,6.0,66,0.00,,,0.31,Weather View 32 v70,2013-07-22 16:49:00,
2013-07-22 12:59:00,75.0,58.2,29.90,West,270,4.0,8.0,56,0.00,,,0.31,Weather View 32 v70,2013-07-22 16:59:00,
2013-07-22 13:04:00,75.0,61.1,29.90,WNW,292,1.0,8.0,62,0.00,,,0.31,Weather View 32 v70,2013-07-22 17:04:00,
2013-07-22 13:09:00,75.0,61.5,29.89,WSW,247,2.0,8.0,63,0.00,,,0.31,Weather View 32 v70,2013-07-22 17:09:00,
2013-07-22 13:14:00,76.0,64.2,29.89,West,270,1.0,8.0,67,0.00,,,0.31,Weather View 32 v70,2013-07-22 17:14:00,
2013-07-22 13:24:00,78.0,70.9,29.89,West,270,1.0,8.0,79,0.00,,,0.31,Weather View 32 v70,2013-07-22 17:24:00,
2013-07-22 13:34:00,78.0,70.9,29.89,SSW,202,2.0,8.0,79,0.00,,,0.31,Weather View 32 v70,2013-07-22 17:34:00,
2013-07-22 13:39:00,78.0,71.3,29.89,WSW,247,3.0,8.0,80,0.00,,,0.31,Weather View 32 v70,2013-07-22 17:39:00,
2013-07-22 13:44:00,78.0,71.7,29.89,SSE,157,3.0,9.0,81,0.00,,,0.31,Weather View 32 v70,2013-07-22 17:44:00,
2013-07-22 13:49:00,79.0,73.7,29.89,South,180,0.0,9.0,84,0.00,,,0.31,Weather View 32 v70,2013-07-22 17:49:00,
2013-07-22 13:54:00,79.0,75.1,29.89,WNW,292,4.0,9.0,88,0.00,,,0.31,Weather View 32 v70,2013-07-22 17:54:00,
2013-07-22 14:04:00,80.0,76.4,29.89,SW,225,1.0,9.0,89,0.00,,,0.31,Weather View 32 v70,2013-07-22 18:04:00,
2013-07-22 14:09:00,80.0,76.8,29.89,SW,225,1.0,9.0,90,0.00,,,0.31,Weather View 32 v70,2013-07-22 18:09:00,
2013-07-22 14:14:00,80.0,76.4,29.88,SSE,157,4.0,9.0,89,0.00,,,0.31,Weather View 32 v70,2013-07-22 18:14:00,
2013-07-22 14:19:00,81.0,78.1,29.88,South,180,3.0,9.0,91,0.00,,,0.31,Weather View 32 v70,2013-07-22 18:19:00,
2013-07-22 14:24:00,82.0,79.1,29.89,West,270,0.0,9.0,91,0.00,,,0.31,Weather View 32 v70,2013-07-22 18:24:00,
2013-07-22 14:29:00,82.0,79.1,29.89,WSW,247,3.0,9.0,91,0.00,,,0.31,Weather View 32 v70,2013-07-22 18:29:00,
2013-07-22 14:44:00,83.0,80.1,29.89,West,270,2.0,9.0,91,0.00,,,0.31,Weather View 32 v70,2013-07-22 18:44:00,
2013-07-22 14:49:00,83.0,79.7,29.88,WNW,292,1.0,8.0,90,0.00,,,0.31,Weather View 32 v70,2013-07-22 18:49:00,
2013-07-22 14:59:00,84.0,80.7,29.89,SW,225,2.0,8.0,90,0.00,,,0.31,Weather View 32 v70,2013-07-22 18:59:00,
2013-07-22 15:04:00,84.0,80.7,29.89,WNW,292,3.0,8.0,90,0.00,,,0.31,Weather View 32 v70,2013-07-22 19:04:00,
2013-07-22 15:09:00,84.0,80.0,29.88,South,180,1.0,8.0,88,0.00,,,0.31,Weather View 32 v70,2013-07-22 19:09:00,
2013-07-22 15:19:00,83.0,80.1,29.88,NW,315,3.0,9.0,91,0.00,,,0.31,Weather View 32 v70,2013-07-22 19:19:00,
2013-07-22 15:24:00,82.0,79.4,29.88,WNW,292,4.0,9.0,92,0.00,,,0.31,Weather View 32 v70,2013-07-22 19:24:00,
2013-07-22 15:29:00,81.0,78.4,29.88,WNW,292,2.0,9.0,92,0.01,,,0.32,Weather View 32 v70,2013-07-22 19:29:00,
2013-07-22 15:34:00,80.0,76.8,29.88,WNW,292,0.0,9.0,90,0.01,,,0.32,Weather View 32 v70,2013-07-22 19:34:00,
2013-07-22 15:44:00,80.0,76.8,29.88,North,360,1.0,9.0,90,0.01,,,0.32,Weather View 32 v70,2013-07-22 19:44:00,
2013-07-22 15:49:00,80.0,77.5,29.88,WNW,292,2.0,9.0,92,0.01,,,0.32,Weather View 32 v70,2013-07-22 19:49:00,
2013-07-22 15:54:00,80.0,77.5,29.87,West,270,2.0,9.0,92,0.01,,,0.32,Weather View 32 v70,2013-07-22 19:54:00,
2013-07-22 15:59:00,80.0,77.5,29.87,West,270,3.0,9.0,92,0.01,,,0.32,Weather View 32 v70,2013-07-22 19:59:00,
2013-07-22 16:04:00,81.0,78.4,29.87,West,270,3.0,9.0,92,0.01,,,0.32,Weather View 32 v70,2013-07-22 20:04:00,
2013-07-22 16:14:00,81.0,78.4,29.87,WNW,292,0.0,7.0,92,0.01,,,0.32,Weather View 32 v70,2013-07-22 20:14:00,
2013-07-22 16:19:00,81.0,78.4,29.87,West,270,5.0,7.0,92,0.01,,,0.32,Weather View 32 v70,2013-07-22 20:19:00,
2013-07-22 16:30:00,81.0,78.1,29.87,WNW,292,5.0,7.0,91,0.00,,,0.32,Weather View 32 v70,2013-07-22 20:30:00,
2013-07-22 16:34:00,81.0,78.4,29.87,WNW,292,6.0,8.0,92,0.00,,,0.32,Weather View 32 v70,2013-07-22 20:34:00,
2013-07-22 16:39:00,81.0,78.4,29.86,WNW,292,6.0,8.0,92,0.00,,,0.32,Weather View 32 v70,2013-07-22 20:39:00,
2013-07-22 16:49:00,82.0,78.8,29.86,WNW,292,3.0,9.0,90,0.00,,,0.32,Weather View 32 v70,2013-07-22 20:49:00,
2013-07-22 16:54:00,82.0,78.1,29.86,West,270,3.0,9.0,88,0.00,,,0.32,Weather View 32 v70,2013-07-22 20:54:00,
2013-07-22 16:59:00,82.0,78.1,29.86,WNW,292,3.0,9.0,88,0.00,,,0.32,Weather View 32 v70,2013-07-22 20:59:00,
2013-07-22 17:04:00,82.0,77.4,29.86,West,270,4.0,9.0,86,0.00,,,0.32,Weather View 32 v70,2013-07-22 21:04:00,
2013-07-22 17:09:00,82.0,77.0,29.86,WNW,292,5.0,12.0,85,0.00,,,0.32,Weather View 32 v70,2013-07-22 21:09:00,
2013-07-22 17:14:00,82.0,76.3,29.86,NW,315,6.0,12.0,83,0.00,,,0.32,Weather View 32 v70,2013-07-22 21:14:00,
2013-07-22 17:24:00,82.0,77.0,29.86,West,270,5.0,12.0,85,0.00,,,0.32,Weather View 32 v70,2013-07-22 21:24:00,
2013-07-22 17:29:00,82.0,78.1,29.86,WNW,292,4.0,12.0,88,0.00,,,0.32,Weather View 32 v70,2013-07-22 21:29:00,
2013-07-22 17:39:00,82.0,77.4,29.87,WNW,292,6.0,12.0,86,0.00,,,0.32,Weather View 32 v70,2013-07-22 21:39:00,
2013-07-22 17:44:00,82.0,77.7,29.87,WNW,292,3.0,12.0,87,0.00,,,0.32,Weather View 32 v70,2013-07-22 21:44:00,
2013-07-22 17:49:00,82.0,77.7,29.87,West,270,6.0,12.0,87,0.00,,,0.32,Weather View 32 v70,2013-07-22 21:49:00,
2013-07-22 17:54:00,82.0,78.1,29.87,WNW,292,2.0,12.0,88,0.00,,,0.32,Weather View 32 v70,2013-07-22 21:54:00,
2013-07-22 17:59:00,81.0,77.4,29.87,WNW,292,2.0,12.0,89,0.00,,,0.32,Weather View 32 v70,2013-07-22 21:59:00,
2013-07-22 18:09:00,81.0,77.8,29.87,WNW,292,6.0,10.0,90,0.00,,,0.32,Weather View 32 v70,2013-07-22 22:09:00,
2013-07-22 18:14:00,81.0,78.4,29.87,WNW,292,4.0,10.0,92,0.00,,,0.32,Weather View 32 v70,2013-07-22 22:14:00,
2013-07-22 18:19:00,81.0,77.8,29.87,WNW,292,1.0,10.0,90,0.00,,,0.32,Weather View 32 v70,2013-07-22 22:19:00,
2013-07-22 18:29:00,82.0,78.8,29.87,WNW,292,2.0,10.0,90,0.00,,,0.32,Weather View 32 v70,2013-07-22 22:29:00,
2013-07-22 18:34:00,82.0,78.1,29.87,WNW,292,7.0,10.0,88,0.00,,,0.32,Weather View 32 v70,2013-07-22 22:34:00,
2013-07-22 18:39:00,82.0,78.1,29.87,NW,315,5.0,10.0,88,0.00,,,0.32,Weather View 32 v70,2013-07-22 22:39:00,
2013-07-22 18:49:00,81.0,77.4,29.86,NW,315,4.0,10.0,89,0.00,,,0.32,Weather View 32 v70,2013-07-22 22:49:00,
2013-07-22 18:54:00,82.0,77.4,29.86,NW,315,1.0,12.0,86,0.00,,,0.32,Weather View 32 v70,2013-07-22 22:54:00,
2013-07-22 19:04:00,82.0,77.4,29.86,NW,315,6.0,12.0,86,0.00,,,0.32,Weather View 32 v70,2013-07-22 23:04:00,
2013-07-22 19:14:00,82.0,78.1,29.86,NW,315,2.0,12.0,88,0.00,,,0.32,Weather View 32 v70,2013-07-22 23:14:00,
2013-07-22 19:19:00,83.0,78.4,29.86,West,270,2.0,12.0,86,0.00,,,0.32,Weather View 32 v70,2013-07-22 23:19:00,
2013-07-22 19:29:00,82.0,78.1,29.87,WNW,292,7.0,12.0,88,0.00,,,0.32,Weather View 32 v70,2013-07-22 23:29:00,
2013-07-22 19:34:00,82.0,78.1,29.87,NW,315,3.0,12.0,88,0.00,,,0.32,Weather View 32 v70,2013-07-22 23:34:00,
2013-07-22 19:39:00,82.0,78.1,29.87,WNW,292,1.0,12.0,88,0.00,,,0.32,Weather View 32 v70,2013-07-22 23:39:00,
2013-07-22 19:49:00,82.0,78.4,29.87,WNW,292,3.0,12.0,89,0.00,,,0.32,Weather View 32 v70,2013-07-22 23:49:00,
2013-07-22 19:54:00,82.0,78.8,29.87,NW,315,3.0,10.0,90,0.00,,,0.32,Weather View 32 v70,2013-07-22 23:54:00,
2013-07-22 20:04:00,81.0,78.4,29.87,WNW,292,6.0,10.0,92,0.00,,,0.32,Weather View 32 v70,2013-07-23 00:04:00,
2013-07-22 20:09:00,81.0,78.4,29.87,WNW,292,3.0,10.0,92,0.00,,,0.32,Weather View 32 v70,2013-07-23 00:09:00,
2013-07-22 20:19:00,81.0,78.4,29.87,West,270,6.0,10.0,92,0.00,,,0.32,Weather View 32 v70,2013-07-23 00:19:00,
2013-07-22 20:24:00,80.0,77.1,29.87,WNW,292,5.0,10.0,91,0.00,,,0.32,Weather View 32 v70,2013-07-23 00:24:00,
2013-07-22 20:32:00,80.0,76.8,29.87,NW,315,6.0,10.0,90,0.00,,,0.32,Weather View 32 v70,2013-07-23 00:32:00,
2013-07-22 20:39:00,79.0,76.1,29.87,WNW,292,2.0,10.0,91,0.00,,,0.32,Weather View 32 v70,2013-07-23 00:39:00,
2013-07-22 20:44:00,79.0,76.5,29.86,NW,315,3.0,10.0,92,0.00,,,0.32,Weather View 32 v70,2013-07-23 00:44:00,
2013-07-22 20:49:00,79.0,76.8,29.86,NW,315,4.0,10.0,93,0.00,,,0.32,Weather View 32 v70,2013-07-23 00:49:00,
2013-07-22 20:54:00,78.0,75.8,29.86,WNW,292,4.0,10.0,93,0.00,,,0.32,Weather View 32 v70,2013-07-23 00:54:00,
2013-07-22 21:04:00,78.0,75.8,29.87,WNW,292,2.0,10.0,93,0.00,,,0.32,Weather View 32 v70,2013-07-23 01:04:00,
2013-07-22 21:14:00,77.0,75.1,29.86,WNW,292,2.0,10.0,94,0.00,,,0.32,Weather View 32 v70,2013-07-23 01:14:00,
2013-07-22 21:24:00,77.0,75.4,29.86,WNW,292,0.0,7.0,95,0.00,,,0.32,Weather View 32 v70,2013-07-23 01:24:00,
2013-07-22 21:33:00,76.0,74.5,29.86,WNW,292,0.0,7.0,95,0.00,,,0.32,Weather View 32 v70,2013-07-23 01:33:00,
2013-07-22 21:39:00,76.0,74.1,29.86,WNW,292,0.0,7.0,94,0.00,,,0.32,Weather View 32 v70,2013-07-23 01:39:00,
2013-07-22 21:49:00,75.0,73.1,29.87,WNW,292,0.0,7.0,94,0.00,,,0.32,Weather View 32 v70,2013-07-23 01:49:00,
2013-07-22 21:54:00,74.0,72.2,29.87,WNW,292,0.0,6.0,94,0.00,,,0.32,Weather View 32 v70,2013-07-23 01:54:00,
2013-07-22 22:04:00,74.0,71.8,29.87,WNW,292,0.0,4.0,93,0.00,,,0.32,Weather View 32 v70,2013-07-23 02:04:00,
2013-07-22 22:09:00,73.0,70.8,29.87,WNW,292,0.0,3.0,93,0.00,,,0.32,Weather View 32 v70,2013-07-23 02:09:00,
2013-07-22 22:19:00,73.0,69.6,29.88,WNW,292,0.0,1.0,89,0.00,,,0.32,Weather View 32 v70,2013-07-23 02:19:00,
2013-07-22 22:24:00,73.0,69.9,29.88,WNW,292,0.0,1.0,90,0.00,,,0.32,Weather View 32 v70,2013-07-23 02:24:00,
2013-07-22 22:29:00,73.0,69.6,29.88,WNW,292,0.0,1.0,89,0.00,,,0.32,Weather View 32 v70,2013-07-23 02:29:00,
2013-07-22 22:34:00,72.0,67.9,29.88,WNW,292,0.0,1.0,87,0.00,,,0.32,Weather View 32 v70,2013-07-23 02:34:00,
2013-07-22 22:39:00,72.0,67.9,29.87,WNW,292,0.0,1.0,87,0.00,,,0.32,Weather View 32 v70,2013-07-23 02:39:00,
2013-07-22 22:49:00,72.0,66.9,29.88,WNW,292,0.0,1.0,84,0.00,,,0.32,Weather View 32 v70,2013-07-23 02:49:00,
2013-07-22 22:54:00,72.0,66.5,29.88,WNW,292,0.0,1.0,83,0.00,,,0.32,Weather View 32 v70,2013-07-23 02:54:00,
2013-07-22 22:59:00,72.0,66.5,29.88,WNW,292,0.0,1.0,83,0.00,,,0.32,Weather View 32 v70,2013-07-23 02:59:00,
2013-07-22 23:09:00,71.0,65.2,29.88,WNW,292,0.0,1.0,82,0.00,,,0.32,Weather View 32 v70,2013-07-23 03:09:00,
2013-07-22 23:14:00,71.0,65.2,29.88,WNW,292,0.0,0.0,82,0.00,,,0.32,Weather View 32 v70,2013-07-23 03:14:00,
2013-07-22 23:24:00,71.0,64.9,29.89,WNW,292,0.0,0.0,81,0.00,,,0.32,Weather View 32 v70,2013-07-23 03:24:00,
2013-07-22 23:29:00,71.0,64.5,29.89,WNW,292,0.0,0.0,80,0.00,,,0.32,Weather View 32 v70,2013-07-23 03:29:00,
2013-07-22 23:34:00,71.0,64.5,29.89,WNW,292,0.0,0.0,80,0.00,,,0.32,Weather View 32 v70,2013-07-23 03:34:00,
2013-07-22 23:39:00,71.0,64.5,29.89,WNW,292,0.0,0.0,80,0.00,,,0.32,Weather View 32 v70,2013-07-23 03:39:00,
2013-07-22 23:49:00,71.0,63.8,29.89,WNW,292,0.0,0.0,78,0.00,,,0.32,Weather View 32 v70,2013-07-23 03:49:00,
2013-07-22 23:54:00,70.0,62.8,29.89,WNW,292,0.0,0.0,78,0.00,,,0.32,Weather View 32 v70,2013-07-23 03:54:00,
2013-07-22 23:59:00,71.0,63.8,29.89,WNW,292,0.0,0.0,78,0.00,,,0.00,Weather View 32 v70,2013-07-23 03:59:00,